createdAt,value
2018-08-10T00:01:01.639Z,98881.91
2018-08-10T00:03:29.771Z,98885.43
2018-08-10T00:05:57.919Z,98891.34
2018-08-10T00:08:26.026Z,98887.89
2018-08-10T00:10:54.229Z,98900.50
2018-08-10T00:13:22.535Z,98899.72
2018-08-10T00:15:50.738Z,98901.09
2018-08-10T00:18:19.787Z,98912.59
2018-08-10T00:20:48.436Z,98917.66
2018-08-10T00:23:16.810Z,98912.88
2018-08-10T00:25:45.245Z,98912.61
2018-08-10T00:28:13.414Z,98925.45
2018-08-10T00:30:41.666Z,98927.07
2018-08-10T00:33:09.790Z,98923.86
2018-08-10T00:35:37.966Z,98927.08
2018-08-10T00:38:06.184Z,98920.39
2018-08-10T00:40:34.552Z,98925.20
2018-08-10T00:43:02.703Z,98937.78
2018-08-10T00:45:31.180Z,98942.86
2018-08-10T00:47:59.447Z,98952.25
2018-08-10T00:50:27.617Z,98946.91
2018-08-10T00:52:55.826Z,98963.22
2018-08-10T00:55:24.151Z,98965.91
2018-08-10T00:57:52.365Z,98965.91
2018-08-10T01:00:22.432Z,98963.49
2018-08-10T01:02:51.471Z,98979.03
2018-08-10T01:05:19.650Z,98988.63
2018-08-10T01:07:47.759Z,98989.39
2018-08-10T01:10:18.457Z,98980.59
2018-08-10T01:12:46.595Z,98990.74
2018-08-10T01:15:16.019Z,98981.64
2018-08-10T01:17:44.902Z,98992.87
2018-08-10T01:20:16.453Z,98991.78
2018-08-10T01:22:48.936Z,98997.92
2018-08-10T01:25:18.228Z,99000.86
2018-08-10T01:27:51.939Z,98998.16
2018-08-10T01:30:20.147Z,98994.13
2018-08-10T01:32:48.310Z,99008.55
2018-08-10T01:35:16.605Z,99020.81
2018-08-10T01:37:44.952Z,99019.73
2018-08-10T01:40:13.214Z,99016.80
2018-08-10T01:42:41.603Z,99011.49
2018-08-10T01:45:10.446Z,99030.41
2018-08-10T01:47:38.579Z,99030.64
2018-08-10T01:50:07.898Z,99036.20
2018-08-10T01:52:36.290Z,99043.13
2018-08-10T01:55:04.677Z,99044.16
2018-08-10T01:57:32.819Z,99057.51
2018-08-10T02:00:01.127Z,99052.95
2018-08-10T02:02:29.296Z,99057.20
2018-08-10T02:04:57.496Z,99060.91
2018-08-10T02:07:25.767Z,99068.14
2018-08-10T02:09:53.962Z,99067.31
2018-08-10T02:12:22.105Z,99068.08
2018-08-10T02:14:50.303Z,99077.11
2018-08-10T02:17:18.918Z,99076.29
2018-08-10T02:19:47.207Z,99081.05
2018-08-10T02:22:15.324Z,99077.55
2018-08-10T02:24:43.501Z,99078.03
2018-08-10T02:27:11.648Z,99084.14
2018-08-10T02:29:39.828Z,99085.97
2018-08-10T02:32:07.964Z,99082.21
2018-08-10T02:34:36.194Z,99086.11
2018-08-10T02:37:04.543Z,99088.47
2018-08-10T02:39:32.639Z,99089.52
2018-08-10T02:42:01.309Z,99089.78
2018-08-10T02:44:29.487Z,99078.04
2018-08-10T02:46:57.626Z,99082.80
2018-08-10T02:49:25.730Z,99089.17
2018-08-10T02:51:53.905Z,99087.02
2018-08-10T02:54:22.001Z,99089.11
2018-08-10T02:56:50.236Z,99091.75
2018-08-10T02:59:18.445Z,99094.91
2018-08-10T03:01:46.786Z,99105.50
2018-08-10T03:04:15.084Z,99099.11
2018-08-10T03:06:43.256Z,99103.89
2018-08-10T03:09:12.239Z,99100.16
2018-08-10T03:11:40.440Z,99106.50
2018-08-10T03:14:08.598Z,99115.90
2018-08-10T03:16:36.741Z,99119.89
2018-08-10T03:19:04.832Z,99115.08
2018-08-10T03:21:32.963Z,99113.15
2018-08-10T03:24:01.179Z,99107.78
2018-08-10T03:26:29.319Z,99116.54
2018-08-10T03:28:57.847Z,99113.30
2018-08-10T03:31:25.930Z,99123.18
2018-08-10T03:33:55.018Z,99125.77
2018-08-10T03:36:23.234Z,99122.34
2018-08-10T03:38:51.515Z,99126.02
2018-08-10T03:41:20.001Z,99130.52
2018-08-10T03:43:48.211Z,99141.17
2018-08-10T03:46:16.404Z,99146.16
2018-08-10T03:48:44.580Z,99146.84
2018-08-10T03:51:12.947Z,99139.88
2018-08-10T03:53:41.171Z,99147.33
2018-08-10T03:56:09.364Z,99145.19
2018-08-10T03:58:37.523Z,99150.52
2018-08-10T04:01:06.652Z,99157.45
2018-08-10T04:03:34.918Z,99164.86
2018-08-10T04:06:03.344Z,99173.56
2018-08-10T04:08:31.492Z,99171.39
2018-08-10T04:11:00.402Z,99171.88
2018-08-10T04:13:28.718Z,99175.81
2018-08-10T04:15:56.835Z,99173.13
2018-08-10T04:18:25.325Z,99177.06
2018-08-10T04:20:53.516Z,99178.34
2018-08-10T04:23:21.875Z,99181.00
2018-08-10T04:25:50.054Z,99194.01
2018-08-10T04:28:18.319Z,99192.89
2018-08-10T04:30:46.712Z,99200.03
2018-08-10T04:33:14.934Z,99202.42
2018-08-10T04:35:43.230Z,99198.42
2018-08-10T04:38:11.394Z,99204.23
2018-08-10T04:40:39.522Z,99210.34
2018-08-10T04:43:07.647Z,99213.67
2018-08-10T04:45:35.752Z,99218.69
2018-08-10T04:48:04.580Z,99224.52
2018-08-10T04:50:33.399Z,99233.53
2018-08-10T04:53:01.582Z,99235.65
2018-08-10T04:55:30.363Z,99239.09
2018-08-10T04:57:58.490Z,99235.85
2018-08-10T05:00:26.632Z,99236.91
2018-08-10T05:02:55.130Z,99236.33
2018-08-10T05:05:23.364Z,99236.91
2018-08-10T05:07:51.494Z,99250.69
2018-08-10T05:10:19.718Z,99258.84
2018-08-10T05:12:47.811Z,99270.23
2018-08-10T05:15:16.003Z,99275.56
2018-08-10T05:17:44.207Z,99282.21
2018-08-10T05:20:12.846Z,99286.67
2018-08-10T05:22:41.875Z,99283.27
2018-08-10T05:25:10.143Z,99297.08
2018-08-10T05:27:38.835Z,99300.56
2018-08-10T05:30:08.284Z,99300.80
2018-08-10T05:32:36.562Z,99299.16
2018-08-10T05:35:05.530Z,99310.11
2018-08-10T05:37:33.882Z,99306.43
2018-08-10T05:40:02.083Z,99308.06
2018-08-10T05:42:30.226Z,99318.13
2018-08-10T05:44:58.611Z,99332.56
2018-08-10T05:47:26.916Z,99325.43
2018-08-10T05:49:55.302Z,99331.57
2018-08-10T05:52:23.515Z,99328.75
2018-08-10T05:54:51.582Z,99322.44
2018-08-10T05:57:20.588Z,99325.65
2018-08-10T05:59:48.852Z,99334.72
2018-08-10T06:02:17.199Z,99336.39
2018-08-10T06:04:45.318Z,99335.10
2018-08-10T06:07:13.730Z,99338.28
2018-08-10T06:09:41.910Z,99340.39
2018-08-10T06:12:10.286Z,99348.65
2018-08-10T06:14:38.406Z,99350.25
2018-08-10T06:17:06.728Z,99357.56
2018-08-10T06:19:35.155Z,99352.75
2018-08-10T06:22:03.351Z,99344.93
2018-08-10T06:24:31.466Z,99353.77
2018-08-10T06:26:59.671Z,99360.98
2018-08-10T06:29:28.065Z,99356.20
2018-08-10T06:31:56.539Z,99353.25
2018-08-10T06:34:24.691Z,99362.80
2018-08-10T06:36:52.786Z,99361.34
2018-08-10T06:39:20.908Z,99364.16
2018-08-10T06:41:49.058Z,99364.79
2018-08-10T06:44:17.264Z,99367.81
2018-08-10T06:46:45.451Z,99362.59
2018-08-10T06:49:13.849Z,99363.20
2018-08-10T06:51:42.094Z,99366.48
2018-08-10T06:54:10.223Z,99364.42
2018-08-10T06:56:38.369Z,99359.95
2018-08-10T06:59:06.492Z,99366.67
2018-08-10T07:01:34.920Z,99366.48
2018-08-10T07:04:02.993Z,99362.31
2018-08-10T07:06:31.187Z,99361.30
2018-08-10T07:08:59.706Z,99364.53
2018-08-10T07:11:27.834Z,99359.52
2018-08-10T07:13:56.070Z,99361.69
2018-08-10T07:16:24.189Z,99358.80
2018-08-10T07:18:52.312Z,99358.57
2018-08-10T07:21:20.618Z,99363.14
2018-08-10T07:23:48.797Z,99363.18
2018-08-10T07:26:17.116Z,99362.41
2018-08-10T07:28:45.354Z,99359.52
2018-08-10T07:31:13.446Z,99355.31
2018-08-10T07:33:41.687Z,99364.94
2018-08-10T07:36:09.794Z,99363.36
2018-08-10T07:38:38.022Z,99359.69
2018-08-10T07:41:06.080Z,99359.19
2018-08-10T07:43:34.175Z,99357.36
2018-08-10T07:46:02.384Z,99355.52
2018-08-10T07:48:31.512Z,99357.95
2018-08-10T07:50:59.639Z,99361.71
2018-08-10T07:53:28.671Z,99360.14
2018-08-10T07:55:56.924Z,99354.58
2018-08-10T07:58:25.588Z,99355.11
2018-08-10T08:00:53.936Z,99353.83
2018-08-10T08:03:22.254Z,99358.93
2018-08-10T08:05:50.581Z,99355.23
2018-08-10T08:08:18.694Z,99353.36
2018-08-10T08:10:46.911Z,99350.19
2018-08-10T08:13:15.167Z,99349.41
2018-08-10T08:15:43.305Z,99348.91
2018-08-10T08:18:12.558Z,99352.11
2018-08-10T08:20:50.876Z,99352.67
2018-08-10T08:23:19.106Z,99352.17
2018-08-10T08:25:47.297Z,99349.52
2018-08-10T08:28:15.414Z,99349.26
2018-08-10T08:30:43.668Z,99348.23
2018-08-10T08:33:12.002Z,99346.91
2018-08-10T08:35:40.910Z,99349.06
2018-08-10T08:38:20.524Z,99351.50
2018-08-10T08:40:49.857Z,99350.47
2018-08-10T08:43:32.754Z,99360.09
2018-08-10T08:46:04.977Z,99361.73
2018-08-10T08:48:34.321Z,99352.09
2018-08-10T08:51:06.027Z,99352.13
2018-08-10T08:53:34.123Z,99353.48
2018-08-10T08:56:03.964Z,99359.09
2018-08-10T08:58:32.544Z,99345.47
2018-08-10T09:01:00.668Z,99342.28
2018-08-10T09:03:40.567Z,99341.28
2018-08-10T09:06:08.936Z,99347.70
2018-08-10T09:08:37.094Z,99344.52
2018-08-10T09:11:06.902Z,99344.53
2018-08-10T09:14:50.872Z,99341.86
2018-08-10T09:17:19.072Z,99353.07
2018-08-10T09:19:47.130Z,99352.03
2018-08-10T09:22:15.413Z,99343.20
2018-08-10T09:24:43.746Z,99345.87
2018-08-10T09:27:12.067Z,99340.27
2018-08-10T09:29:40.292Z,99338.97
2018-08-10T09:32:08.411Z,99340.05
2018-08-10T09:34:36.552Z,99334.97
2018-08-10T09:37:04.822Z,99334.45
2018-08-10T09:39:33.042Z,99337.66
2018-08-10T09:42:02.558Z,99334.72
2018-08-10T09:44:31.299Z,99335.28
2018-08-10T09:46:59.932Z,99336.09
2018-08-10T09:49:34.800Z,99344.64
2018-08-10T09:52:02.998Z,99337.44
2018-08-10T09:54:31.268Z,99340.38
2018-08-10T09:57:01.278Z,99341.75
2018-08-10T09:59:29.637Z,99338.82
2018-08-10T10:02:03.179Z,99332.13
2018-08-10T10:04:31.391Z,99333.73
2018-08-10T10:06:59.758Z,99328.91
2018-08-10T10:09:27.895Z,99327.86
2018-08-10T10:32:27.535Z,99305.39
2018-08-10T10:34:55.615Z,99307.80
2018-08-10T10:37:23.764Z,99309.69
2018-08-10T10:39:52.086Z,99307.83
2018-08-10T10:42:20.986Z,99306.50
2018-08-10T10:56:20.003Z,99306.79
2018-08-10T10:58:48.290Z,99305.45
2018-08-10T11:01:16.520Z,99303.85
2018-08-10T11:03:44.630Z,99301.99
2018-08-10T11:06:12.838Z,99301.70
2018-08-10T11:08:40.937Z,99296.34
2018-08-10T11:11:09.033Z,99293.67
2018-08-10T11:13:37.174Z,99299.31
2018-08-10T11:16:05.551Z,99299.05
2018-08-10T11:18:33.635Z,99296.90
2018-08-10T11:21:01.898Z,99293.14
2018-08-10T11:23:29.991Z,99293.70
2018-08-10T11:25:58.090Z,99290.53
2018-08-10T11:28:26.252Z,99286.52
2018-08-10T11:30:54.334Z,99287.59
2018-08-10T11:33:22.541Z,99296.41
2018-08-10T11:35:50.672Z,99292.68
2018-08-10T11:38:18.804Z,99295.36
2018-08-10T11:40:47.125Z,99293.23
2018-08-10T11:43:15.243Z,99296.69
2018-08-10T11:45:43.401Z,99291.34
2018-08-10T11:48:11.498Z,99294.56
2018-08-10T11:50:39.821Z,99292.70
2018-08-10T11:53:07.944Z,99289.77
2018-08-10T11:55:36.111Z,99289.77
2018-08-10T11:58:04.250Z,99287.34
2018-08-10T12:00:32.338Z,99283.85
2018-08-10T12:03:00.464Z,99279.31
2018-08-10T12:05:28.779Z,99283.33
2018-08-10T12:07:57.143Z,99278.52
2018-08-10T12:10:25.239Z,99273.16
2018-08-10T12:12:53.342Z,99271.04
2018-08-10T12:15:21.423Z,99271.82
2018-08-10T12:17:49.622Z,99269.44
2018-08-10T12:20:17.919Z,99267.54
2018-08-10T12:22:46.090Z,99263.00
2018-08-10T12:25:14.422Z,99260.87
2018-08-10T12:27:42.526Z,99260.05
2018-08-10T12:30:12.040Z,99250.42
2018-08-10T12:32:40.127Z,99250.42
2018-08-10T12:35:08.864Z,99254.17
2018-08-10T12:37:36.999Z,99254.98
2018-08-10T12:40:05.982Z,99255.50
2018-08-10T12:42:34.109Z,99258.73
2018-08-10T12:45:02.642Z,99254.71
2018-08-10T12:47:30.865Z,99254.97
2018-08-10T12:49:59.425Z,99255.78
2018-08-10T12:52:27.755Z,99246.41
2018-08-10T12:54:57.522Z,99253.36
2018-08-10T12:57:26.010Z,99244.01
2018-08-10T12:59:54.352Z,99241.04
2018-08-10T13:02:22.463Z,99242.11
2018-08-10T13:04:50.698Z,99245.59
2018-08-10T13:07:18.812Z,99244.00
2018-08-10T13:09:47.003Z,99235.97
2018-08-10T13:12:15.156Z,99239.45
2018-08-10T13:14:43.471Z,99235.16
2018-08-10T13:17:11.707Z,99237.30
2018-08-10T13:19:39.933Z,99228.73
2018-08-10T13:22:08.094Z,99235.16
2018-08-10T13:24:36.338Z,99226.31
2018-08-10T13:27:04.525Z,99224.97
2018-08-10T13:29:32.659Z,99214.52
2018-08-10T13:32:00.953Z,99220.16
2018-08-10T13:34:29.230Z,99211.86
2018-08-10T13:36:57.366Z,99220.41
2018-08-10T13:39:25.592Z,99224.17
2018-08-10T13:41:53.761Z,99214.77
2018-08-10T13:44:22.175Z,99223.87
2018-08-10T13:46:50.334Z,99217.14
2018-08-10T13:49:18.511Z,99217.36
2018-08-10T13:51:46.761Z,99214.38
2018-08-10T13:54:14.944Z,99212.52
2018-08-10T13:56:43.088Z,99213.29
2018-08-10T13:59:11.256Z,99207.92
2018-08-10T14:01:39.695Z,99209.23
2018-08-10T14:04:07.819Z,99212.41
2018-08-10T14:06:36.062Z,99209.97
2018-08-10T14:09:06.075Z,99205.38
2018-08-10T14:11:34.200Z,99205.63
2018-08-10T14:14:02.433Z,99202.64
2018-08-10T14:16:30.549Z,99198.34
2018-08-10T14:18:58.710Z,99191.05
2018-08-10T14:21:26.932Z,99186.17
2018-08-10T14:23:55.159Z,99189.09
2018-08-10T14:26:23.467Z,99192.31
2018-08-10T14:28:51.647Z,99188.01
2018-08-10T14:31:19.934Z,99190.95
2018-08-10T14:33:48.087Z,99184.77
2018-08-10T14:36:17.632Z,99179.66
2018-08-10T14:38:45.847Z,99179.88
2018-08-10T14:41:14.264Z,99187.63
2018-08-10T14:43:42.309Z,99171.26
2018-08-10T14:46:10.559Z,99169.58
2018-08-10T14:48:38.658Z,99162.70
2018-08-10T14:51:07.034Z,99171.81
2018-08-10T14:53:35.237Z,99165.34
2018-08-10T14:56:03.576Z,99172.80
2018-08-10T14:58:31.799Z,99164.19
2018-08-10T15:01:00.109Z,99160.74
2018-08-10T15:03:28.657Z,99159.09
2018-08-10T15:05:56.830Z,99158.56
2018-08-10T15:08:25.298Z,99159.30
2018-08-10T15:10:53.627Z,99157.70
2018-08-10T15:13:21.799Z,99145.91
2018-08-10T15:15:50.138Z,99142.66
2018-08-10T15:18:18.456Z,99140.81
2018-08-10T15:20:46.567Z,99138.64
2018-08-10T15:23:14.792Z,99139.92
2018-08-10T15:25:42.923Z,99141.52
2018-08-10T15:28:11.058Z,99140.45
2018-08-10T15:30:39.202Z,99141.52
2018-08-10T15:33:07.381Z,99139.37
2018-08-10T15:35:35.757Z,99137.75
2018-08-10T15:38:04.018Z,99138.53
2018-08-10T15:40:32.199Z,99134.78
2018-08-10T15:43:00.657Z,99139.09
2018-08-10T15:45:29.112Z,99128.34
2018-08-10T15:47:57.228Z,99129.19
2018-08-10T15:50:25.448Z,99132.94
2018-08-10T15:52:53.567Z,99130.50
2018-08-10T15:55:21.742Z,99131.59
2018-08-10T15:57:49.989Z,99127.62
2018-08-10T16:00:21.002Z,99120.17
2018-08-10T16:02:49.363Z,99128.81
2018-08-10T16:05:17.605Z,99124.50
2018-08-10T16:07:45.794Z,99125.64
2018-08-10T16:10:14.364Z,99124.32
2018-08-10T16:12:42.615Z,99117.91
2018-08-10T16:15:14.480Z,99124.87
2018-08-10T16:17:42.722Z,99121.64
2018-08-10T16:20:14.698Z,99115.53
2018-08-10T16:22:42.987Z,99117.94
2018-08-10T16:25:12.084Z,99115.05
2018-08-10T16:27:41.383Z,99116.94
2018-08-10T16:30:11.599Z,99118.28
2018-08-10T16:32:40.672Z,99119.34
2018-08-10T16:35:10.633Z,99113.97
2018-08-10T16:37:39.756Z,99112.89
2018-08-10T16:40:09.171Z,99108.59
2018-08-10T16:42:38.112Z,99110.70
2018-08-10T16:45:06.708Z,99109.31
2018-08-10T16:47:35.192Z,99103.05
2018-08-10T16:50:03.549Z,99110.25
2018-08-10T16:52:31.701Z,99101.33
2018-08-10T16:55:00.627Z,99102.64
2018-08-10T16:57:29.212Z,99101.83
2018-08-10T16:59:57.585Z,99100.73
2018-08-10T17:02:26.170Z,99097.24
2018-08-10T17:04:54.320Z,99101.52
2018-08-10T17:07:22.571Z,99103.64
2018-08-10T17:09:50.672Z,99101.52
2018-08-10T17:12:18.866Z,99105.58
2018-08-10T17:14:46.979Z,99099.62
2018-08-10T17:17:15.130Z,99104.67
2018-08-10T17:19:44.369Z,99107.39
2018-08-10T17:22:12.594Z,99100.90
2018-08-10T17:24:40.874Z,99098.22
2018-08-10T17:27:09.286Z,99090.97
2018-08-10T17:29:37.482Z,99095.81
2018-08-10T17:32:05.822Z,99092.34
2018-08-10T17:34:34.063Z,99093.47
2018-08-10T17:37:02.214Z,99097.80
2018-08-10T17:39:30.401Z,99093.52
2018-08-10T17:41:58.690Z,99098.61
2018-08-10T17:44:26.889Z,99096.73
2018-08-10T17:46:55.094Z,99096.77
2018-08-10T17:49:23.212Z,99094.95
2018-08-10T17:51:51.616Z,99097.88
2018-08-10T17:54:19.955Z,99095.48
2018-08-10T17:56:48.302Z,99093.41
2018-08-10T17:59:16.463Z,99094.80
2018-08-10T18:01:44.747Z,99096.27
2018-08-10T18:04:13.646Z,99093.58
2018-08-10T18:06:42.051Z,99097.33
2018-08-10T18:09:10.923Z,99095.75
2018-08-10T18:11:39.655Z,99098.73
2018-08-10T18:14:08.812Z,99096.34
2018-08-10T18:16:37.113Z,99104.39
2018-08-10T18:19:05.595Z,99105.22
2018-08-10T18:21:34.074Z,99107.38
2018-08-10T18:24:02.209Z,99107.89
2018-08-10T18:26:30.386Z,99107.15
2018-08-10T18:28:58.763Z,99115.45
2018-08-10T18:31:27.168Z,99109.31
2018-08-10T18:33:55.313Z,99111.45
2018-08-10T18:36:23.825Z,99110.92
2018-08-10T18:38:52.166Z,99106.94
2018-08-10T18:41:20.289Z,99113.38
2018-08-10T18:43:48.449Z,99117.69
2018-08-10T18:46:16.616Z,99119.02
2018-08-10T18:48:44.798Z,99121.41
2018-08-10T18:51:13.177Z,99117.98
2018-08-10T18:53:41.580Z,99115.86
2018-08-10T18:56:09.886Z,99119.33
2018-08-10T18:58:38.003Z,99121.52
2018-08-10T19:01:06.281Z,99123.13
2018-08-10T19:03:34.980Z,99121.80
2018-08-10T19:06:03.234Z,99123.14
2018-08-10T19:08:31.795Z,99122.08
2018-08-10T19:10:59.902Z,99122.88
2018-08-10T19:13:28.246Z,99128.76
2018-08-10T19:15:56.389Z,99129.30
2018-08-10T19:18:24.551Z,99132.53
2018-08-10T19:20:52.661Z,99126.92
2018-08-10T19:23:21.386Z,99130.66
2018-08-10T19:25:50.731Z,99137.09
2018-08-10T19:28:19.170Z,99146.73
2018-08-10T19:30:47.667Z,99140.05
2018-08-10T19:33:15.809Z,99142.98
2018-08-10T19:35:43.972Z,99138.15
2018-08-10T19:38:12.188Z,99138.45
2018-08-10T19:40:40.304Z,99133.92
2018-08-10T19:43:08.443Z,99139.54
2018-08-10T19:45:36.736Z,99142.77
2018-08-10T19:48:05.003Z,99147.56
2018-08-10T19:50:33.098Z,99143.56
2018-08-10T19:53:01.256Z,99139.00
2018-08-10T19:55:29.382Z,99143.83
2018-08-10T19:57:57.542Z,99141.44
2018-08-10T20:00:25.810Z,99137.94
2018-08-10T20:02:54.097Z,99132.27
2018-08-10T20:05:22.494Z,99127.98
2018-08-10T20:07:51.120Z,99130.09
2018-08-10T20:10:19.242Z,99131.16
2018-08-10T20:12:47.511Z,99127.94
2018-08-10T20:15:17.129Z,99126.02
2018-08-10T20:17:45.559Z,99125.49
2018-08-10T20:20:16.644Z,99121.45
2018-08-10T20:22:45.058Z,99119.27
2018-08-10T20:25:13.980Z,99118.44
2018-08-10T20:27:42.098Z,99124.52
2018-08-10T20:30:14.298Z,99121.22
2018-08-10T20:32:43.781Z,99127.59
2018-08-10T20:35:13.871Z,99124.86
2018-08-10T20:37:42.540Z,99132.86
2018-08-10T20:40:13.839Z,99130.16
2018-08-10T20:42:41.975Z,99127.14
2018-08-10T20:45:10.141Z,99127.89
2018-08-10T20:47:38.338Z,99127.34
2018-08-10T20:50:09.498Z,99126.25
2018-08-10T20:52:37.645Z,99117.63
2018-08-10T20:55:05.778Z,99122.70
2018-08-10T20:57:34.577Z,99123.20
2018-08-10T21:00:02.691Z,99124.51
2018-08-10T21:02:30.907Z,99120.20
2018-08-10T21:04:59.045Z,99118.55
2018-08-10T21:07:27.287Z,99123.33
2018-08-10T21:09:55.376Z,99124.39
2018-08-10T21:12:23.564Z,99122.73
2018-08-10T21:14:52.516Z,99120.01
2018-08-10T21:17:20.724Z,99116.48
2018-08-10T21:19:49.595Z,99122.13
2018-08-10T21:22:17.691Z,99119.70
2018-08-10T21:24:45.842Z,99117.78
2018-08-10T21:27:13.942Z,99114.25
2018-08-10T21:29:42.171Z,99113.69
2018-08-10T21:32:10.302Z,99111.45
2018-08-10T21:34:38.575Z,99113.36
2018-08-10T21:37:06.728Z,99116.83
2018-08-10T21:39:34.923Z,99115.69
2018-08-10T21:42:03.025Z,99122.66
2018-08-10T21:44:31.136Z,99119.16
2018-08-10T21:46:59.402Z,99115.58
2018-08-10T21:49:27.554Z,99121.67
2018-08-10T21:51:55.790Z,99125.10
2018-08-10T21:54:23.929Z,99121.07
2018-08-10T21:56:52.046Z,99122.13
2018-08-10T21:59:20.234Z,99121.32
2018-08-10T22:01:48.646Z,99121.85
2018-08-10T22:04:16.754Z,99127.54
2018-08-10T22:06:45.025Z,99122.98
2018-08-10T22:09:13.150Z,99124.61
2018-08-10T22:11:41.504Z,99130.01
2018-08-10T22:14:15.428Z,99127.84
2018-08-10T22:16:48.944Z,99128.53
2018-08-10T22:19:18.046Z,99122.97
2018-08-10T22:21:47.028Z,99126.96
2018-08-10T22:24:15.712Z,99133.88
2018-08-10T22:26:44.355Z,99131.19
2018-08-10T22:29:12.851Z,99131.66
2018-08-10T22:31:43.416Z,99133.20
2018-08-10T22:34:11.767Z,99134.72
2018-08-10T22:36:39.970Z,99136.31
2018-08-10T22:39:10.474Z,99145.31
2018-08-10T22:41:38.875Z,99134.27
2018-08-10T22:44:07.630Z,99146.45
2018-08-10T22:46:36.293Z,99151.77
2018-08-10T22:49:04.608Z,99146.12
2018-08-10T22:51:32.932Z,99155.72
2018-08-10T22:54:01.423Z,99151.91
2018-08-10T22:56:29.667Z,99149.48
2018-08-10T22:58:57.978Z,99146.05
2018-08-10T23:01:26.458Z,99136.95
2018-08-10T23:03:55.424Z,99138.54
2018-08-10T23:06:23.718Z,99135.83
2018-08-10T23:08:52.341Z,99133.64
2018-08-10T23:11:20.732Z,99135.38
2018-08-10T23:13:49.250Z,99133.75
2018-08-10T23:16:17.566Z,99135.09
2018-08-10T23:18:45.932Z,99139.37
2018-08-10T23:21:14.196Z,99139.81
2018-08-10T23:23:42.409Z,99134.34
2018-08-10T23:26:10.683Z,99139.05
2018-08-10T23:28:38.874Z,99140.61
2018-08-10T23:31:07.103Z,99139.58
2018-08-10T23:33:35.331Z,99133.91
2018-08-10T23:36:03.680Z,99140.84
2018-08-10T23:38:31.831Z,99138.91
2018-08-10T23:41:00.162Z,99135.67
2018-08-10T23:43:28.634Z,99135.34
2018-08-10T23:45:57.283Z,99126.43
2018-08-10T23:48:25.660Z,99131.46
2018-08-10T23:50:53.822Z,99133.54
2018-08-10T23:53:22.344Z,99132.93
2018-08-10T23:55:50.888Z,99141.22
2018-08-10T23:58:19.092Z,99129.75
